« 2011年秋の北海道~4日目 | トップページ | 2011年秋の北海道~6日目 »

2011年9月25日 (日)

2011年秋の北海道~5日目

RJCM 250000Z 22004KT 170V280 9999 FEW012 16/11 Q1026
RJCM 250300Z 20010KT 170V230 9999 FEW030 21/11 Q1025
RJCM 250600Z 16011KT 9999 FEW035 21/12 Q1024
RJCM 250900Z 19011KT 9999 FEW050 BKN/// 16/12 Q1024

Dscn8713s

Dscn8714s

Dscn8722s

Dscn8723s

Dscn8728s

-----------------------------------------------------------------------------

Dscn8729s

Dscn8730s

Dscn8731s

Dscn8746s



|

« 2011年秋の北海道~4日目 | トップページ | 2011年秋の北海道~6日目 »

別海合宿」カテゴリの記事

コメント

コメントを書く



(ウェブ上には掲載しません)


コメントは記事投稿者が公開するまで表示されません。



« 2011年秋の北海道~4日目 | トップページ | 2011年秋の北海道~6日目 »